createdAt,value
2018-07-03T00:02:19.008Z,52.40
2018-07-03T00:04:46.415Z,52.00
2018-07-03T00:07:13.883Z,52.50
2018-07-03T00:09:41.250Z,52.70
2018-07-03T00:12:08.668Z,52.60
2018-07-03T00:14:36.152Z,52.80
2018-07-03T00:17:19.523Z,52.90
2018-07-03T00:19:50.080Z,53.30
2018-07-03T00:22:18.055Z,53.30
2018-07-03T00:24:45.826Z,52.90
2018-07-03T00:27:13.470Z,52.80
2018-07-03T00:29:40.941Z,52.30
2018-07-03T00:32:08.257Z,52.60
2018-07-03T00:34:35.617Z,53.10
2018-07-03T00:37:02.960Z,52.50
2018-07-03T00:39:30.310Z,52.80
2018-07-03T00:41:57.674Z,52.60
2018-07-03T00:44:24.961Z,52.30
2018-07-03T00:49:19.955Z,52.50
2018-07-03T00:51:47.241Z,52.00
2018-07-03T00:54:14.548Z,51.80
2018-07-03T00:56:42.138Z,52.70
2018-07-03T01:01:37.858Z,51.70
2018-07-03T01:04:05.291Z,51.80
2018-07-03T01:06:32.770Z,51.70
2018-07-03T01:09:00.470Z,51.50
2018-07-03T01:11:28.191Z,51.50
2018-07-03T01:13:56.102Z,52.00
2018-07-03T01:16:23.510Z,51.80
2018-07-03T01:18:50.988Z,51.90
2018-07-03T01:21:18.802Z,51.20
2018-07-03T01:23:46.274Z,51.30
2018-07-03T01:26:13.693Z,51.30
2018-07-03T01:28:41.131Z,50.90
2018-07-03T01:31:08.596Z,51.10
2018-07-03T01:33:36.052Z,51.50
2018-07-03T01:36:03.461Z,52.10
2018-07-03T01:38:30.799Z,52.00
2018-07-03T01:40:58.604Z,51.90
2018-07-03T01:43:26.066Z,52.90
2018-07-03T01:45:53.539Z,52.60
2018-07-03T01:48:20.998Z,53.70
2018-07-03T01:50:48.283Z,53.80
2018-07-03T01:53:15.764Z,52.80
2018-07-03T01:55:43.131Z,52.80
2018-07-03T01:58:10.524Z,52.60
2018-07-03T02:00:37.877Z,51.90
2018-07-03T02:03:05.374Z,52.20
2018-07-03T02:05:32.775Z,52.30
2018-07-03T02:08:00.212Z,52.50
2018-07-03T02:10:27.561Z,52.80
2018-07-03T02:12:54.878Z,52.60
2018-07-03T02:15:22.750Z,52.20
2018-07-03T02:17:50.493Z,52.10
2018-07-03T02:20:17.851Z,52.20
2018-07-03T02:22:45.153Z,52.80
2018-07-03T02:25:12.563Z,52.70
2018-07-03T02:27:40.021Z,52.20
2018-07-03T02:30:07.868Z,52.30
2018-07-03T02:32:35.305Z,52.10
2018-07-03T02:35:02.723Z,52.50
2018-07-03T02:37:30.478Z,51.70
2018-07-03T02:39:57.917Z,52.10
2018-07-03T02:42:25.972Z,52.30
2018-07-03T02:44:53.809Z,52.60
2018-07-03T02:47:21.326Z,52.70
2018-07-03T02:49:48.714Z,53.20
2018-07-03T02:52:16.232Z,52.90
2018-07-03T02:54:43.838Z,52.80
2018-07-03T02:57:11.260Z,53.70
2018-07-03T02:59:38.676Z,53.00
2018-07-03T03:02:06.075Z,53.30
2018-07-03T03:04:33.544Z,52.60
2018-07-03T03:07:00.980Z,52.70
2018-07-03T03:09:29.076Z,52.80
2018-07-03T03:11:56.844Z,52.20
2018-07-03T03:14:24.183Z,51.30
2018-07-03T03:16:51.608Z,51.60
2018-07-03T03:19:19.423Z,52.30
2018-07-03T03:21:47.272Z,51.00
2018-07-03T03:24:14.713Z,50.90
2018-07-03T03:26:42.031Z,51.50
2018-07-03T03:29:09.539Z,51.30
2018-07-03T03:31:37.046Z,50.90
2018-07-03T03:34:05.688Z,51.00
2018-07-03T03:36:33.170Z,50.90
2018-07-03T03:39:00.634Z,50.30
2018-07-03T03:41:27.936Z,50.60
2018-07-03T03:43:55.292Z,50.70
2018-07-03T03:46:22.650Z,50.60
2018-07-03T03:48:50.155Z,50.80
2018-07-03T03:51:17.574Z,51.70
2018-07-03T03:53:44.920Z,51.80
2018-07-03T03:56:12.210Z,51.30
2018-07-03T03:58:39.590Z,51.10
2018-07-03T04:01:06.941Z,50.70
2018-07-03T04:03:34.278Z,50.60
2018-07-03T04:06:01.580Z,50.90
2018-07-03T04:08:28.959Z,52.10
2018-07-03T04:10:56.351Z,51.00
2018-07-03T04:13:23.694Z,50.90
2018-07-03T04:15:51.031Z,50.80
2018-07-03T04:18:24.125Z,50.00
2018-07-03T04:20:51.508Z,50.40
2018-07-03T04:23:18.867Z,50.00
2018-07-03T04:25:46.253Z,49.50
2018-07-03T04:28:13.568Z,48.80
2018-07-03T04:30:40.930Z,49.10
2018-07-03T04:33:08.322Z,48.70
2018-07-03T04:35:35.777Z,48.90
2018-07-03T04:38:03.137Z,49.20
2018-07-03T04:40:30.496Z,48.70
2018-07-03T04:42:57.841Z,48.40
2018-07-03T04:45:25.289Z,48.20
2018-07-03T04:47:52.692Z,46.40
2018-07-03T04:50:20.021Z,44.70
2018-07-03T04:52:47.353Z,42.50
2018-07-03T04:55:14.723Z,41.50
2018-07-03T04:57:42.101Z,40.80
2018-07-03T05:00:09.452Z,40.30
2018-07-03T05:02:36.807Z,39.70
2018-07-03T05:05:04.585Z,39.10
2018-07-03T05:07:31.896Z,37.90
2018-07-03T05:09:59.249Z,37.30
2018-07-03T05:12:26.727Z,37.40
2018-07-03T05:14:54.374Z,37.60
2018-07-03T05:17:21.954Z,37.40
2018-07-03T05:19:49.311Z,38.00
2018-07-03T05:22:16.738Z,38.30
2018-07-03T05:24:44.304Z,38.60
2018-07-03T05:27:11.628Z,38.70
2018-07-03T05:29:38.938Z,38.80
2018-07-03T05:32:06.749Z,39.90
2018-07-03T05:34:34.104Z,40.30
2018-07-03T05:37:01.568Z,40.80
2018-07-03T05:39:28.971Z,41.00
2018-07-03T05:41:56.839Z,41.30
2018-07-03T05:44:24.268Z,41.50
2018-07-03T05:46:51.652Z,41.40
2018-07-03T05:49:19.031Z,41.30
2018-07-03T05:51:47.923Z,41.10
2018-07-03T05:54:17.016Z,41.40
2018-07-03T05:56:44.621Z,41.00
2018-07-03T05:59:12.419Z,41.20
2018-07-03T06:01:40.250Z,41.10
2018-07-03T06:04:07.850Z,40.90
2018-07-03T06:06:35.377Z,40.60
2018-07-03T06:09:04.082Z,40.90
2018-07-03T06:11:31.668Z,40.90
2018-07-03T06:13:59.136Z,40.90
2018-07-03T06:18:54.753Z,39.30
